Time;durP1;ratioP1;P1;durP2;ratioP2;P2;SDS_P1;SDS_P2;PMS_P1;PMS_P2;Temp;Humidity;BMP_temperature;BMP_pressure;BME280_temperature;BME280_humidity;BME280_pressure;Samples;Min_cycle;Max_cycle;Signal;HPM_P1;HPM_P2
2023/06/26 00:00:25;;;;;;;6.70;5.13;;;23.90;90.00;;;;;;7391547;19;20131;-75
2023/06/26 00:02:56;;;;;;;6.05;4.95;;;23.80;90.40;;;;;;7389998;19;20146;-76
2023/06/26 00:05:22;;;;;;;6.70;5.43;;;23.90;90.50;;;;;;7393368;19;20138;-76
2023/06/26 00:08:05;;;;;;;7.20;5.43;;;24.00;90.50;;;;;;7391306;19;20135;-75
2023/06/26 00:10:31;;;;;;;6.38;5.10;;;24.00;90.40;;;;;;7389630;19;20138;-75
2023/06/26 00:13:05;;;;;;;6.88;5.25;;;23.90;90.70;;;;;;7393208;19;20149;-75
2023/06/26 00:15:31;;;;;;;5.82;5.18;;;24.00;90.70;;;;;;7389999;19;20139;-75
2023/06/26 00:17:58;;;;;;;6.88;5.15;;;24.00;90.80;;;;;;7392220;19;20616;-79
2023/06/26 00:20:24;;;;;;;7.53;5.13;;;23.80;91.20;;;;;;7391219;19;20545;-75
2023/06/26 00:23:00;;;;;;;6.55;5.40;;;23.80;91.60;;;;;;7392839;19;20140;-75
2023/06/26 00:25:49;;;;;;;6.57;5.05;;;23.90;91.40;;;;;;7387492;19;20138;-76
2023/06/26 00:28:14;;;;;;;7.05;5.22;;;23.90;91.60;;;;;;7389061;19;20127;-75
2023/06/26 00:30:43;;;;;;;7.20;4.88;;;23.80;91.70;;;;;;7392357;19;20238;-76
2023/06/26 00:33:16;;;;;;;6.32;5.18;;;23.90;91.80;;;;;;7389338;19;20616;-75
2023/06/26 00:35:42;;;;;;;6.75;5.13;;;23.90;91.90;;;;;;7389699;19;20145;-75
2023/06/26 00:38:10;;;;;;;6.38;5.05;;;23.90;91.80;;;;;;7389790;19;20222;-75
2023/06/26 00:40:36;;;;;;;7.90;5.60;;;24.00;91.80;;;;;;7391347;19;20155;-75
2023/06/26 00:43:17;;;;;;;6.20;4.88;;;24.00;92.00;;;;;;7391405;19;20135;-75
2023/06/26 00:45:43;;;;;;;5.60;5.00;;;24.00;91.70;;;;;;7383011;19;20182;-75
2023/06/26 00:48:16;;;;;;;6.95;5.30;;;23.80;92.30;;;;;;7389740;19;20481;-76
2023/06/26 00:50:43;;;;;;;5.97;4.85;;;23.80;92.70;;;;;;7392831;19;20670;-76
2023/06/26 00:53:14;;;;;;;5.63;4.95;;;23.80;92.60;;;;;;7389728;19;20154;-76
2023/06/26 00:55:41;;;;;;;7.30;5.60;;;23.60;93.00;;;;;;7388253;19;20811;-74
2023/06/26 00:58:10;;;;;;;6.15;4.90;;;23.60;93.40;;;;;;7390960;19;21032;-75
2023/06/26 01:00:36;;;;;;;6.63;4.78;;;23.70;93.10;;;;;;7389247;19;20591;-75
2023/06/26 01:03:05;;;;;;;6.70;5.10;;;23.50;93.60;;;;;;7389925;19;20130;-74
2023/06/26 01:05:31;;;;;;;7.47;4.80;;;23.70;93.60;;;;;;7388550;19;20158;-75
2023/06/26 01:07:58;;;;;;;5.63;4.82;;;23.60;93.80;;;;;;7386561;19;20138;-75
2023/06/26 01:10:27;;;;;;;6.32;5.20;;;23.50;93.90;;;;;;7389746;19;20832;-76
2023/06/26 01:12:53;;;;;;;7.35;4.97;;;23.50;94.00;;;;;;7389336;19;20499;-75
2023/06/26 01:15:19;;;;;;;6.00;4.93;;;23.60;94.20;;;;;;7385812;19;20146;-75
2023/06/26 01:17:47;;;;;;;6.10;5.13;;;23.70;94.10;;;;;;7389943;19;20598;-74
2023/06/26 01:20:14;;;;;;;5.90;4.57;;;23.70;94.20;;;;;;7388058;19;20599;-75
2023/06/26 01:23:15;;;;;;;6.43;4.50;;;23.60;94.40;;;;;;7390032;19;20153;-75
2023/06/26 01:26:06;;;;;;;6.80;5.07;;;23.70;94.40;;;;;;7385097;19;20154;-75
2023/06/26 01:28:35;;;;;;;8.80;5.03;;;23.60;94.80;;;;;;7389791;19;20127;-75
2023/06/26 01:31:02;;;;;;;6.05;4.85;;;23.60;94.90;;;;;;7386887;19;20138;-74
2023/06/26 01:33:28;;;;;;;7.93;5.40;;;23.70;94.90;;;;;;7391171;19;20151;-74
2023/06/26 01:35:55;;;;;;;6.85;5.05;;;23.60;95.40;;;;;;7388637;19;20134;-75
2023/06/26 01:38:25;;;;;;;5.65;4.90;;;23.50;95.70;;;;;;7391434;19;20147;-74
2023/06/26 01:40:52;;;;;;;6.60;5.07;;;23.50;95.80;;;;;;7388658;19;20139;-74
2023/06/26 01:43:35;;;;;;;7.10;5.50;;;23.50;96.20;;;;;;7390246;19;20235;-75
2023/06/26 01:46:09;;;;;;;6.55;5.45;;;23.60;96.30;;;;;;7385635;19;20521;-74
2023/06/26 01:48:45;;;;;;;7.18;5.00;;;23.60;96.40;;;;;;7387915;19;20492;-74
2023/06/26 01:51:14;;;;;;;6.53;5.10;;;23.50;96.70;;;;;;7388941;19;20138;-74
2023/06/26 01:53:46;;;;;;;6.28;5.45;;;23.50;97.20;;;;;;7379019;19;20221;-75
2023/06/26 01:56:15;;;;;;;7.80;5.43;;;23.50;97.30;;;;;;7387194;19;20174;-74
2023/06/26 01:58:46;;;;;;;8.20;5.47;;;23.50;97.70;;;;;;7388920;19;20149;-75
2023/06/26 02:01:12;;;;;;;8.52;5.15;;;23.50;98.00;;;;;;7387906;19;20499;-74
2023/06/26 02:03:38;;;;;;;6.82;5.30;;;23.40;98.10;;;;;;7390350;19;20139;-75
2023/06/26 02:06:05;;;;;;;7.88;5.60;;;23.30;98.10;;;;;;7386149;19;20156;-74
2023/06/26 02:08:30;;;;;;;8.00;5.22;;;23.10;98.30;;;;;;7390369;19;20141;-75
2023/06/26 02:10:57;;;;;;;5.95;5.13;;;22.90;98.90;;;;;;7390421;19;20127;-75
2023/06/26 02:13:23;;;;;;;7.03;4.53;;;23.00;99.10;;;;;;7390259;19;20142;-75
2023/06/26 02:15:49;;;;;;;6.65;4.82;;;22.90;99.30;;;;;;7388036;19;20166;-75
2023/06/26 02:18:15;;;;;;;5.93;4.88;;;22.80;99.80;;;;;;7387523;19;20161;-75
2023/06/26 02:20:43;;;;;;;6.32;4.88;;;22.80;99.60;;;;;;7386638;19;20161;-75
2023/06/26 02:23:09;;;;;;;6.40;4.72;;;22.80;99.80;;;;;;7387163;19;20160;-74
2023/06/26 02:25:35;;;;;;;7.40;5.45;;;22.80;99.90;;;;;;7384881;19;20615;-74
2023/06/26 02:28:01;;;;;;;10.63;5.05;;;22.90;99.90;;;;;;7388144;19;20127;-74
2023/06/26 02:30:27;;;;;;;5.97;4.85;;;23.00;99.80;;;;;;7388520;19;20146;-73
2023/06/26 02:32:52;;;;;;;6.25;4.85;;;22.90;99.90;;;;;;7385661;19;20135;-75
2023/06/26 02:35:18;;;;;;;6.05;4.90;;;22.90;99.90;;;;;;7385431;19;20560;-74
2023/06/26 02:37:44;;;;;;;7.28;4.68;;;23.10;99.90;;;;;;7387250;19;20123;-74
2023/06/26 02:40:10;;;;;;;6.30;4.75;;;23.10;99.80;;;;;;7386719;19;20135;-75
2023/06/26 02:42:36;;;;;;;5.65;4.63;;;23.10;99.90;;;;;;7386554;19;20161;-74
2023/06/26 02:45:02;;;;;;;6.10;4.70;;;23.10;99.90;;;;;;7388323;19;20138;-74
2023/06/26 02:47:27;;;;;;;5.82;4.95;;;23.10;99.70;;;;;;7383562;19;20146;-74
2023/06/26 02:49:53;;;;;;;6.45;4.55;;;23.20;99.50;;;;;;7386300;19;20154;-75
2023/06/26 02:52:19;;;;;;;5.40;4.60;;;23.20;99.40;;;;;;7386005;19;20158;-74
2023/06/26 02:54:45;;;;;;;4.53;4.07;;;23.30;99.50;;;;;;7386141;19;20146;-74
2023/06/26 02:57:12;;;;;;;7.72;4.82;;;23.20;99.30;;;;;;7384262;19;20906;-74
2023/06/26 02:59:39;;;;;;;5.43;4.78;;;23.20;99.50;;;;;;7385807;19;20613;-73
2023/06/26 03:02:05;;;;;;;6.70;5.00;;;23.10;99.60;;;;;;7385362;19;20149;-74
2023/06/26 03:04:31;;;;;;;6.88;4.70;;;23.10;99.60;;;;;;7386417;19;20142;-74
2023/06/26 03:06:56;;;;;;;5.22;4.38;;;23.10;99.70;;;;;;7383752;19;20517;-73
2023/06/26 03:09:22;;;;;;;6.70;4.60;;;23.20;99.50;;;;;;7387024;19;20138;-74
2023/06/26 03:11:48;;;;;;;5.78;4.40;;;23.10;99.50;;;;;;7385045;19;20139;-74
2023/06/26 03:14:14;;;;;;;5.95;4.28;;;23.10;99.70;;;;;;7387218;19;20479;-75
2023/06/26 03:16:40;;;;;;;5.10;4.60;;;23.10;99.60;;;;;;7385190;19;20148;-75
2023/06/26 03:19:06;;;;;;;5.57;4.22;;;23.00;99.70;;;;;;7385482;19;20146;-74
2023/06/26 03:21:32;;;;;;;5.40;4.22;;;23.10;99.90;;;;;;7386897;19;20662;-75
2023/06/26 03:23:58;;;;;;;6.72;4.80;;;23.00;99.90;;;;;;7386663;19;20142;-74
2023/06/26 03:26:27;;;;;;;5.45;4.72;;;23.00;99.90;;;;;;7381681;19;20139;-74
2023/06/26 03:28:53;;;;;;;6.25;4.10;;;23.00;99.90;;;;;;7384934;19;20143;-74
2023/06/26 03:31:20;;;;;;;5.35;4.68;;;23.00;99.90;;;;;;7382899;19;20157;-74
2023/06/26 03:33:46;;;;;;;5.90;4.75;;;23.00;99.90;;;;;;7386681;19;20599;-75
2023/06/26 03:36:12;;;;;;;5.75;4.57;;;23.00;99.90;;;;;;7379538;19;20161;-75
2023/06/26 03:38:38;;;;;;;5.28;4.35;;;23.10;99.90;;;;;;7389476;19;20153;-74
2023/06/26 03:41:03;;;;;;;5.75;4.93;;;23.00;99.90;;;;;;7390953;19;20607;-75
2023/06/26 03:43:29;;;;;;;5.07;4.35;;;23.00;99.90;;;;;;7394097;19;20601;-75
2023/06/26 03:45:55;;;;;;;5.82;4.68;;;23.00;99.90;;;;;;7391045;19;20157;-74
2023/06/26 03:48:21;;;;;;;6.22;4.72;;;22.90;99.90;;;;;;7391675;19;20148;-74
2023/06/26 03:50:46;;;;;;;8.15;4.90;;;22.90;99.90;;;;;;7390374;19;20134;-74
2023/06/26 03:53:12;;;;;;;6.50;4.43;;;22.80;99.90;;;;;;7391339;19;20158;-75
2023/06/26 03:55:38;;;;;;;5.95;4.78;;;22.80;99.90;;;;;;7389806;19;20499;-75
2023/06/26 03:58:04;;;;;;;6.47;4.35;;;22.80;99.90;;;;;;7390959;19;20138;-75
2023/06/26 04:00:30;;;;;;;5.65;4.60;;;22.80;99.90;;;;;;7392886;19;20333;-75
2023/06/26 04:02:57;;;;;;;5.72;4.72;;;22.90;99.90;;;;;;7391271;19;20152;-76
2023/06/26 04:05:23;;;;;;;6.28;4.70;;;23.00;99.90;;;;;;7392158;19;20131;-75
2023/06/26 04:07:52;;;;;;;4.63;4.22;;;23.10;99.90;;;;;;7392216;19;20469;-75
2023/06/26 04:10:19;;;;;;;5.80;4.35;;;23.10;99.90;;;;;;7392065;19;20198;-75
2023/06/26 04:12:45;;;;;;;6.05;4.35;;;23.20;99.90;;;;;;7391575;19;20193;-76
2023/06/26 04:15:11;;;;;;;6.97;5.22;;;23.10;99.90;;;;;;7391450;19;20130;-75
2023/06/26 04:17:36;;;;;;;6.53;5.05;;;23.20;99.90;;;;;;7391415;19;20145;-76
2023/06/26 04:20:06;;;;;;;8.15;5.82;;;23.30;99.90;;;;;;7389616;19;20130;-75
2023/06/26 04:22:32;;;;;;;7.10;5.25;;;23.20;99.90;;;;;;7391882;19;20437;-75
2023/06/26 04:24:58;;;;;;;9.02;6.63;;;23.00;99.90;;;;;;7391199;19;20201;-75
2023/06/26 04:27:24;;;;;;;7.63;5.68;;;22.90;99.90;;;;;;7392727;19;20134;-74
2023/06/26 04:29:50;;;;;;;8.60;5.50;;;22.90;99.90;;;;;;7394858;19;20169;-75
2023/06/26 04:32:15;;;;;;;5.82;5.00;;;22.80;99.90;;;;;;7395559;19;20145;-75
2023/06/26 04:34:44;;;;;;;8.80;5.30;;;22.90;99.90;;;;;;7396469;19;20167;-75
2023/06/26 04:37:10;;;;;;;8.93;5.38;;;22.80;99.90;;;;;;7397167;19;20142;-76
2023/06/26 04:39:39;;;;;;;8.93;5.35;;;22.80;99.90;;;;;;7397473;19;20210;-74
2023/06/26 04:42:06;;;;;;;7.75;5.53;;;22.80;99.90;;;;;;7396010;19;20740;-75
2023/06/26 04:44:32;;;;;;;7.38;5.45;;;22.80;99.90;;;;;;7398612;19;20491;-76
2023/06/26 04:46:58;;;;;;;8.77;6.20;;;22.80;99.90;;;;;;7393737;19;20492;-75
2023/06/26 04:49:24;;;;;;;9.05;5.20;;;22.80;99.90;;;;;;7386607;19;20142;-75
2023/06/26 04:51:50;;;;;;;6.43;5.15;;;22.80;99.90;;;;;;7392323;19;20135;-75
2023/06/26 04:54:16;;;;;;;7.45;5.28;;;22.70;99.90;;;;;;7391892;19;20158;-75
2023/06/26 04:56:43;;;;;;;7.60;6.05;;;22.50;99.90;;;;;;7390645;19;20146;-75
2023/06/26 04:59:13;;;;;;;9.60;5.65;;;22.50;99.90;;;;;;7382815;19;20155;-76
2023/06/26 05:01:39;;;;;;;6.68;5.05;;;22.50;99.90;;;;;;7390781;19;20145;-75
2023/06/26 05:04:05;;;;;;;6.68;5.07;;;22.50;99.90;;;;;;7387168;19;20197;-75
2023/06/26 05:06:31;;;;;;;6.38;5.10;;;22.70;99.90;;;;;;7389626;19;20203;-76
2023/06/26 05:08:57;;;;;;;6.47;4.97;;;22.70;99.90;;;;;;7389591;19;20595;-76
2023/06/26 05:11:24;;;;;;;7.53;5.60;;;22.70;99.90;;;;;;7388625;19;20642;-76
2023/06/26 05:13:50;;;;;;;6.65;4.82;;;22.70;99.90;;;;;;7388891;19;20147;-75
2023/06/26 05:16:16;;;;;;;9.13;5.20;;;22.70;99.90;;;;;;7384994;19;20154;-75
2023/06/26 05:18:41;;;;;;;6.85;5.18;;;22.70;99.90;;;;;;7388182;19;20130;-76
2023/06/26 05:21:07;;;;;;;8.85;5.50;;;22.70;99.90;;;;;;7385953;19;20566;-75
2023/06/26 05:23:34;;;;;;;8.65;6.32;;;22.70;99.90;;;;;;7384949;19;20173;-75
2023/06/26 05:26:02;;;;;;;8.98;5.80;;;22.70;99.90;;;;;;7386250;19;20169;-74
2023/06/26 05:28:30;;;;;;;7.57;5.53;;;22.80;99.90;;;;;;7385899;19;20138;-75
2023/06/26 05:30:59;;;;;;;6.45;5.15;;;22.80;99.90;;;;;;7390905;19;20153;-74
2023/06/26 05:33:27;;;;;;;9.25;5.22;;;22.90;99.90;;;;;;7385940;19;20158;-75
2023/06/26 05:35:53;;;;;;;7.32;4.97;;;22.90;99.90;;;;;;7387134;19;20143;-76
2023/06/26 05:38:20;;;;;;;8.07;5.78;;;23.00;99.90;;;;;;7387207;19;20134;-75
2023/06/26 05:40:46;;;;;;;7.90;5.50;;;23.00;99.90;;;;;;7388094;19;21098;-76
2023/06/26 05:43:12;;;;;;;6.47;4.93;;;23.00;99.90;;;;;;7387231;19;20167;-76
2023/06/26 05:45:38;;;;;;;6.05;5.00;;;23.00;99.90;;;;;;7387334;19;20607;-75
2023/06/26 05:48:04;;;;;;;6.90;5.07;;;23.10;99.90;;;;;;7388887;19;20147;-75
2023/06/26 05:50:30;;;;;;;8.38;5.45;;;23.20;99.90;;;;;;7387154;19;20150;-76
2023/06/26 05:52:56;;;;;;;5.53;4.65;;;23.20;99.90;;;;;;7388968;19;20147;-75
2023/06/26 05:55:23;;;;;;;6.80;5.32;;;23.30;99.90;;;;;;7381324;19;20479;-76
2023/06/26 05:57:50;;;;;;;8.20;5.07;;;23.30;99.90;;;;;;7387975;19;20478;-76
2023/06/26 06:00:17;;;;;;;6.50;5.47;;;23.30;99.90;;;;;;7385298;19;20194;-76
2023/06/26 06:02:43;;;;;;;7.28;5.20;;;23.50;99.90;;;;;;7387437;19;20270;-76
2023/06/26 06:05:09;;;;;;;10.20;5.65;;;23.60;99.90;;;;;;7385029;19;20469;-76
2023/06/26 06:07:37;;;;;;;6.15;5.22;;;23.70;99.90;;;;;;7375568;19;20148;-75
2023/06/26 06:10:04;;;;;;;7.32;5.70;;;23.70;99.90;;;;;;7385198;19;20198;-76
2023/06/26 06:12:30;;;;;;;7.00;5.43;;;23.80;99.90;;;;;;7384896;19;20154;-75
2023/06/26 06:14:56;;;;;;;8.10;5.38;;;24.40;99.90;;;;;;7388633;19;20123;-75
2023/06/26 06:17:22;;;;;;;7.95;5.68;;;26.30;99.90;;;;;;7384982;19;20210;-75
2023/06/26 06:19:48;;;;;;;6.93;4.97;;;28.50;98.50;;;;;;7389207;19;20130;-78
2023/06/26 06:22:14;;;;;;;8.35;5.88;;;29.70;95.70;;;;;;7387664;19;20544;-77
2023/06/26 06:24:40;;;;;;;7.18;5.65;;;30.40;93.60;;;;;;7385894;19;20195;-77
2023/06/26 06:27:06;;;;;;;8.35;5.47;;;31.30;92.00;;;;;;7385352;19;20231;-78
2023/06/26 06:29:31;;;;;;;6.50;5.38;;;32.10;90.40;;;;;;7387156;19;20138;-77
2023/06/26 06:31:57;;;;;;;6.43;5.30;;;33.00;86.90;;;;;;7386574;19;20157;-77
2023/06/26 06:34:23;;;;;;;6.88;5.20;;;33.80;82.80;;;;;;7386947;19;20138;-79
2023/06/26 06:36:51;;;;;;;7.03;5.15;;;33.60;81.50;;;;;;7386691;19;20130;-80
2023/06/26 06:39:17;;;;;;;7.82;5.85;;;33.10;82.00;;;;;;7387956;19;20131;-79
2023/06/26 06:41:42;;;;;;;7.38;5.72;;;33.40;81.10;;;;;;7388301;19;20220;-78
2023/06/26 06:44:10;;;;;;;7.03;5.47;;;33.70;79.90;;;;;;7383083;19;20134;-79
2023/06/26 06:46:37;;;;;;;7.40;6.25;;;33.50;79.00;;;;;;7384799;19;20507;-78
2023/06/26 06:49:05;;;;;;;9.52;5.90;;;33.40;79.00;;;;;;7385573;19;20143;-81
2023/06/26 06:51:31;;;;;;;6.53;5.38;;;33.50;79.00;;;;;;7388908;19;20143;-82
2023/06/26 06:53:56;;;;;;;5.53;4.90;;;33.50;78.10;;;;;;7389099;19;20172;-81
2023/06/26 06:56:22;;;;;;;8.82;5.28;;;33.50;77.80;;;;;;7386086;19;20143;-87
2023/06/26 06:58:48;;;;;;;6.32;4.90;;;33.20;78.30;;;;;;7385757;19;20142;-89
2023/06/26 07:01:14;;;;;;;6.95;5.47;;;33.00;78.40;;;;;;7393052;19;20127;-88
2023/06/26 07:03:40;;;;;;;6.68;5.32;;;32.80;78.30;;;;;;7389225;19;20147;-87
2023/06/26 07:06:06;;;;;;;7.80;5.80;;;32.70;78.70;;;;;;7388482;19;20127;-86
2023/06/26 07:08:32;;;;;;;9.15;5.57;;;32.90;78.30;;;;;;7389858;19;20595;-84
2023/06/26 07:10:58;;;;;;;7.65;5.40;;;32.70;78.00;;;;;;7380677;19;20165;-86
2023/06/26 07:13:23;;;;;;;9.05;5.70;;;32.10;79.00;;;;;;7391670;19;20142;-81
2023/06/26 07:15:49;;;;;;;9.70;6.28;;;31.90;80.00;;;;;;7389176;19;21247;-82
2023/06/26 07:18:15;;;;;;;8.05;6.22;;;31.70;80.70;;;;;;7391985;19;20135;-81
2023/06/26 07:20:41;;;;;;;6.60;5.13;;;31.70;81.20;;;;;;7390032;19;20135;-81
2023/06/26 07:23:07;;;;;;;8.30;5.45;;;31.70;81.10;;;;;;7389713;19;20151;-80
2023/06/26 07:25:33;;;;;;;6.25;5.18;;;31.50;81.40;;;;;;7390424;19;20127;-79
2023/06/26 07:27:59;;;;;;;8.13;5.18;;;31.40;81.80;;;;;;7390015;19;20583;-78
2023/06/26 07:30:24;;;;;;;9.27;5.38;;;31.30;81.80;;;;;;7390259;19;20142;-80
2023/06/26 07:32:50;;;;;;;8.57;5.00;;;31.00;82.60;;;;;;7389905;19;20141;-80
2023/06/26 07:35:16;;;;;;;11.88;5.57;;;31.10;82.40;;;;;;7392097;19;20135;-82
2023/06/26 07:37:44;;;;;;;7.25;5.22;;;31.10;82.40;;;;;;7391885;19;20169;-82
2023/06/26 07:40:10;;;;;;;7.15;5.13;;;31.30;82.10;;;;;;7390126;19;20153;-81
2023/06/26 07:42:36;;;;;;;6.45;4.97;;;31.30;81.30;;;;;;7390245;19;20237;-81
2023/06/26 07:45:09;;;;;;;6.57;5.13;;;31.30;81.20;;;;;;7391269;19;20139;-82
2023/06/26 07:47:38;;;;;;;5.30;4.70;;;31.40;80.90;;;;;;7390533;19;20202;-78
2023/06/26 07:50:04;;;;;;;6.57;4.88;;;31.40;80.80;;;;;;7392970;19;20139;-78
2023/06/26 07:52:32;;;;;;;7.68;4.90;;;31.60;80.50;;;;;;7389463;19;20202;-82
2023/06/26 07:54:58;;;;;;;5.95;4.80;;;31.80;79.80;;;;;;7390051;19;20167;-80
2023/06/26 07:57:24;;;;;;;7.22;4.90;;;31.80;80.10;;;;;;7388034;19;20138;-79
2023/06/26 07:59:50;;;;;;;8.50;5.70;;;32.10;79.90;;;;;;7389424;19;20785;-82
2023/06/26 08:02:16;;;;;;;6.40;4.90;;;32.50;78.90;;;;;;7390907;19;20468;-81
2023/06/26 08:04:48;;;;;;;6.13;4.90;;;32.60;78.60;;;;;;7391121;19;20608;-81
2023/06/26 08:07:13;;;;;;;6.35;4.60;;;32.90;77.10;;;;;;7385550;19;20202;-80
2023/06/26 08:09:39;;;;;;;7.43;4.82;;;32.70;76.50;;;;;;7393043;19;21789;-76
2023/06/26 08:12:05;;;;;;;5.75;4.53;;;32.60;77.00;;;;;;7388072;19;20480;-82
2023/06/26 08:14:33;;;;;;;5.63;4.50;;;32.60;77.50;;;;;;7390320;19;20486;-80
2023/06/26 08:16:59;;;;;;;9.70;7.47;;;33.20;76.00;;;;;;7387385;19;20147;-78
2023/06/26 08:19:25;;;;;;;9.40;5.07;;;33.60;75.40;;;;;;7392573;19;20130;-78
2023/06/26 08:21:51;;;;;;;8.63;5.82;;;34.00;73.60;;;;;;7389079;19;20205;-78
2023/06/26 08:24:18;;;;;;;5.90;4.47;;;34.00;73.50;;;;;;7385895;19;20599;-80
2023/06/26 08:26:46;;;;;;;5.88;5.30;;;33.80;73.00;;;;;;7386727;19;20131;-80
2023/06/26 08:29:12;;;;;;;5.38;4.82;;;33.50;73.10;;;;;;7387281;19;20146;-81
2023/06/26 08:31:38;;;;;;;5.38;4.88;;;33.10;74.10;;;;;;7395433;19;20157;-80
2023/06/26 08:34:05;;;;;;;7.53;5.18;;;33.00;74.10;;;;;;7396487;19;20153;-81
2023/06/26 08:36:31;;;;;;;5.20;4.70;;;33.30;73.90;;;;;;7390360;19;20261;-82
2023/06/26 08:38:57;;;;;;;6.10;4.43;;;33.20;73.20;;;;;;7388395;19;20146;-80
2023/06/26 08:41:23;;;;;;;6.32;3.95;;;33.10;75.30;;;;;;7390304;19;20134;-79
2023/06/26 08:43:50;;;;;;;7.10;3.80;;;33.10;73.30;;;;;;7387948;19;20147;-82
2023/06/26 08:46:17;;;;;;;3.42;3.08;;;32.90;72.80;;;;;;7386871;19;20182;-82
2023/06/26 08:48:48;;;;;;;5.35;3.78;;;32.70;74.80;;;;;;7385370;19;20603;-80
2023/06/26 08:51:18;;;;;;;4.07;3.58;;;33.10;75.10;;;;;;7389300;19;20610;-83
2023/06/26 08:53:56;;;;;;;4.53;3.55;;;33.70;71.70;;;;;;7387025;19;20130;-82
2023/06/26 08:56:23;;;;;;;8.30;3.42;;;33.30;71.70;;;;;;7390690;19;20138;-80
2023/06/26 08:58:49;;;;;;;5.55;3.70;;;32.90;73.70;;;;;;7388833;19;20126;-81
2023/06/26 09:01:16;;;;;;;6.30;3.92;;;33.20;73.60;;;;;;7387196;19;20138;-83
2023/06/26 09:03:42;;;;;;;5.43;4.00;;;33.30;72.40;;;;;;7389069;19;20130;-82
2023/06/26 09:06:08;;;;;;;3.67;3.38;;;32.90;72.50;;;;;;7387278;19;20142;-80
2023/06/26 09:08:34;;;;;;;3.80;3.28;;;32.50;72.60;;;;;;7387831;19;20127;-79
2023/06/26 09:11:00;;;;;;;4.32;3.92;;;32.20;73.30;;;;;;7391004;19;20188;-79
2023/06/26 09:13:29;;;;;;;4.18;3.65;;;32.10;73.50;;;;;;7387490;19;22410;-80
2023/06/26 09:15:55;;;;;;;3.58;3.03;;;31.90;74.20;;;;;;7388004;19;20127;-83
2023/06/26 09:18:21;;;;;;;4.20;3.63;;;31.80;74.60;;;;;;7386364;19;20134;-80
2023/06/26 09:20:50;;;;;;;5.47;3.67;;;31.70;75.10;;;;;;7388784;19;20139;-80
2023/06/26 09:23:16;;;;;;;5.85;3.55;;;31.50;74.70;;;;;;7389446;19;20591;-82
2023/06/26 09:25:42;;;;;;;3.67;3.33;;;31.40;75.20;;;;;;7388448;19;20163;-79
2023/06/26 09:28:08;;;;;;;3.75;3.35;;;31.30;76.00;;;;;;7386740;19;20131;-79
2023/06/26 09:30:35;;;;;;;4.68;3.55;;;32.00;75.40;;;;;;7386405;19;20151;-82
2023/06/26 09:33:15;;;;;;;3.22;2.92;;;32.10;74.40;;;;;;7388853;19;20598;-81
2023/06/26 09:35:41;;;;;;;4.45;3.50;;;31.80;74.20;;;;;;7384747;19;20142;-83
2023/06/26 09:38:07;;;;;;;4.05;3.65;;;31.30;74.80;;;;;;7389897;19;20123;-80
2023/06/26 09:40:38;;;;;;;3.53;3.22;;;31.10;75.50;;;;;;7388833;19;20594;-82
2023/06/26 09:43:09;;;;;;;3.80;3.40;;;31.20;75.30;;;;;;7388607;19;20143;-81
2023/06/26 09:45:38;;;;;;;5.88;3.20;;;31.20;76.40;;;;;;7385047;19;20170;-77
2023/06/26 09:48:05;;;;;;;10.57;3.83;;;31.10;75.70;;;;;;7387550;19;20142;-76
2023/06/26 09:50:34;;;;;;;4.78;3.53;;;31.30;77.00;;;;;;7386844;19;20458;-75
2023/06/26 09:53:13;;;;;;;4.70;3.88;;;31.50;78.30;;;;;;7385294;19;20157;-75
2023/06/26 09:55:40;;;;;;;6.15;3.85;;;31.60;74.90;;;;;;7386265;19;20154;-76
2023/06/26 09:58:08;;;;;;;3.65;3.28;;;31.30;75.50;;;;;;7386782;19;20134;-77
2023/06/26 10:00:34;;;;;;;4.60;3.75;;;31.10;76.20;;;;;;7385736;19;20146;-75
2023/06/26 10:03:00;;;;;;;4.25;3.40;;;31.10;75.90;;;;;;7388773;19;20138;-75
2023/06/26 10:05:27;;;;;;;3.80;3.40;;;31.00;76.70;;;;;;7386935;19;20647;-77
2023/06/26 10:07:56;;;;;;;4.20;3.67;;;31.00;77.40;;;;;;7390016;19;20158;-76
2023/06/26 10:10:24;;;;;;;6.20;3.75;;;30.80;77.20;;;;;;7392095;19;20139;-75
2023/06/26 10:12:59;;;;;;;5.80;3.92;;;30.70;77.60;;;;;;7387077;19;20151;-76
2023/06/26 10:15:26;;;;;;;4.60;4.15;;;30.60;78.20;;;;;;7383659;19;20689;-77
2023/06/26 10:17:55;;;;;;;6.07;4.30;;;30.80;78.70;;;;;;7382957;19;20424;-74
2023/06/26 10:20:22;;;;;;;4.35;3.95;;;30.90;78.30;;;;;;7385785;19;20534;-74
2023/06/26 10:22:48;;;;;;;5.45;4.22;;;31.00;79.50;;;;;;7388089;19;20134;-77
2023/06/26 10:25:19;;;;;;;5.45;3.85;;;31.10;81.60;;;;;;7382416;19;20159;-76
2023/06/26 10:27:49;;;;;;;5.25;4.30;;;31.10;79.30;;;;;;7384251;19;20659;-76
2023/06/26 10:30:20;;;;;;;4.80;4.40;;;30.80;79.90;;;;;;7384812;19;20142;-77
2023/06/26 10:32:46;;;;;;;4.32;3.92;;;30.50;80.80;;;;;;7382382;19;20150;-76
2023/06/26 10:35:15;;;;;;;5.00;4.18;;;30.30;81.90;;;;;;7384977;19;20310;-82
2023/06/26 10:37:49;;;;;;;5.20;4.53;;;30.10;82.80;;;;;;7386085;19;20161;-75
2023/06/26 10:40:22;;;;;;;5.75;4.72;;;30.10;83.60;;;;;;7385191;19;20158;-78
2023/06/26 10:42:51;;;;;;;5.45;4.07;;;30.10;83.20;;;;;;7387833;19;20158;-79
2023/06/26 10:45:20;;;;;;;9.18;4.65;;;30.10;85.60;;;;;;7377968;19;20400;-76
2023/06/26 10:47:48;;;;;;;6.03;4.47;;;30.30;84.30;;;;;;7386503;19;20138;-75
2023/06/26 10:50:26;;;;;;;4.65;4.00;;;30.50;82.90;;;;;;7394793;19;20516;-76
2023/06/26 10:53:11;;;;;;;4.75;4.25;;;30.40;80.50;;;;;;7392249;19;20146;-74
2023/06/26 10:55:40;;;;;;;3.88;3.47;;;30.30;80.50;;;;;;7392410;19;20466;-75
2023/06/26 10:58:47;;;;;;;7.22;4.40;;;30.20;81.90;;;;;;7391375;19;20167;-75
2023/06/26 11:01:19;;;;;;;6.65;4.68;;;30.50;81.60;;;;;;7392270;19;20150;-74
2023/06/26 11:03:49;;;;;;;4.47;4.07;;;30.60;81.40;;;;;;7392548;19;20426;-75
2023/06/26 11:06:21;;;;;;;5.93;4.40;;;30.60;81.50;;;;;;7389406;19;20131;-75
2023/06/26 11:08:56;;;;;;;6.45;4.55;;;30.70;81.30;;;;;;7391812;19;20130;-76
2023/06/26 11:11:42;;;;;;;4.25;3.67;;;30.80;81.70;;;;;;7392569;19;20141;-76
2023/06/26 11:14:09;;;;;;;6.90;4.18;;;30.90;81.30;;;;;;7392136;19;20151;-74
2023/06/26 11:16:35;;;;;;;7.18;4.53;;;31.10;81.10;;;;;;7388462;19;20225;-76
2023/06/26 11:19:01;;;;;;;5.55;4.70;;;31.10;80.90;;;;;;7391419;19;20148;-76
2023/06/26 11:21:27;;;;;;;5.05;4.28;;;31.00;81.20;;;;;;7388984;19;20154;-75
2023/06/26 11:23:58;;;;;;;4.95;4.20;;;30.80;82.00;;;;;;7390154;19;20151;-76
2023/06/26 11:26:23;;;;;;;7.88;4.60;;;30.60;82.40;;;;;;7387670;19;20222;-78
2023/06/26 11:28:55;;;;;;;8.38;4.55;;;30.70;82.90;;;;;;7390537;19;20543;-75
2023/06/26 11:31:30;;;;;;;4.40;4.00;;;30.70;83.90;;;;;;7388390;19;20158;-76
2023/06/26 11:33:56;;;;;;;9.00;4.20;;;30.90;83.10;;;;;;7384811;19;20130;-76
2023/06/26 11:36:27;;;;;;;5.50;4.38;;;31.10;82.90;;;;;;7385283;19;20269;-79
2023/06/26 11:39:00;;;;;;;5.35;4.57;;;31.30;81.70;;;;;;7390337;19;20147;-78
2023/06/26 11:41:28;;;;;;;5.60;4.30;;;31.50;81.70;;;;;;7385912;19;20617;-77
2023/06/26 11:43:54;;;;;;;5.20;4.70;;;31.40;82.60;;;;;;7387425;19;20138;-76
2023/06/26 11:46:21;;;;;;;6.43;4.18;;;31.60;81.60;;;;;;7386719;19;20147;-77
2023/06/26 11:48:48;;;;;;;7.07;4.30;;;31.70;81.70;;;;;;7392018;19;20135;-77
2023/06/26 11:51:15;;;;;;;5.53;4.28;;;31.40;81.50;;;;;;7390043;19;20151;-78
2023/06/26 11:53:42;;;;;;;12.90;5.13;;;31.40;81.80;;;;;;7390162;19;20135;-75
2023/06/26 11:56:13;;;;;;;6.63;5.93;;;31.30;81.70;;;;;;7390032;19;20158;-77
2023/06/26 11:59:12;;;;;;;5.00;4.40;;;31.40;81.50;;;;;;7388829;19;20149;-76
2023/06/26 12:01:45;;;;;;;7.82;4.43;;;31.30;81.80;;;;;;7391691;19;20165;-79
2023/06/26 12:04:14;;;;;;;8.45;4.63;;;31.20;82.90;;;;;;7389810;19;20853;-78
2023/06/26 12:06:49;;;;;;;4.68;4.07;;;31.10;85.30;;;;;;7388825;19;20134;-78
2023/06/26 12:09:18;;;;;;;4.75;4.32;;;30.80;86.70;;;;;;7388625;19;20142;-78
2023/06/26 12:11:48;;;;;;;5.60;5.00;;;30.70;87.60;;;;;;7389974;19;20138;-77
2023/06/26 12:14:16;;;;;;;6.10;4.43;;;30.40;88.50;;;;;;7387451;19;20134;-76
2023/06/26 12:16:42;;;;;;;10.63;5.25;;;30.10;89.90;;;;;;7389237;19;20146;-79
2023/06/26 12:19:08;;;;;;;7.40;4.60;;;30.10;90.30;;;;;;7390902;19;20134;-78
2023/06/26 12:21:40;;;;;;;5.60;4.30;;;30.30;90.20;;;;;;7390798;19;20166;-77
2023/06/26 12:24:08;;;;;;;4.70;4.20;;;30.40;90.20;;;;;;7391613;19;20134;-77
2023/06/26 12:26:36;;;;;;;9.65;4.72;;;30.60;90.40;;;;;;7389868;19;20135;-77
2023/06/26 12:29:07;;;;;;;5.55;4.35;;;30.70;90.10;;;;;;7390770;19;20598;-77
2023/06/26 12:31:34;;;;;;;5.50;4.55;;;30.60;90.10;;;;;;7390228;19;20137;-77
2023/06/26 12:34:00;;;;;;;6.07;4.68;;;30.60;90.20;;;;;;7388877;19;20139;-79
2023/06/26 12:36:26;;;;;;;5.78;4.45;;;30.50;90.30;;;;;;7378721;19;20138;-78
2023/06/26 12:38:54;;;;;;;5.43;4.20;;;30.40;90.60;;;;;;7392862;19;20135;-77
2023/06/26 12:41:20;;;;;;;5.15;4.28;;;30.50;90.50;;;;;;7391150;19;20131;-78
2023/06/26 12:43:46;;;;;;;4.65;4.22;;;30.40;90.80;;;;;;7392157;19;20142;-78
2023/06/26 12:46:12;;;;;;;5.80;4.50;;;30.20;91.00;;;;;;7390673;19;20161;-77
2023/06/26 12:48:47;;;;;;;4.97;4.47;;;30.20;91.20;;;;;;7391249;19;20765;-77